createdAt,value
2018-10-07T00:01:11.958Z,7.8
2018-10-07T00:06:44.888Z,7.8
2018-10-07T00:12:08.430Z,7.8
2018-10-07T00:17:36.343Z,7.7
2018-10-07T00:23:05.802Z,7.6
2018-10-07T00:28:33.804Z,7.5
2018-10-07T00:34:03.317Z,7.4
2018-10-07T00:39:36.169Z,7.4
2018-10-07T00:45:04.648Z,7.3
2018-10-07T00:50:28.596Z,7.3
2018-10-07T00:55:57.709Z,7.3
2018-10-07T01:01:27.220Z,7.2
2018-10-07T01:07:00.212Z,7.1
2018-10-07T01:12:28.409Z,7.1
2018-10-07T01:17:51.495Z,7.1
2018-10-07T01:23:20.938Z,7.1
2018-10-07T01:28:49.095Z,7.1
2018-10-07T01:34:17.044Z,7.1
2018-10-07T01:39:51.253Z,7.1
2018-10-07T01:45:15.426Z,7.1
2018-10-07T01:50:44.576Z,7.1
2018-10-07T01:56:12.754Z,7.2
2018-10-07T02:01:41.912Z,7.1
2018-10-07T02:07:10.060Z,7.1
2018-10-07T02:12:44.557Z,7.1
2018-10-07T02:18:07.418Z,7.1
2018-10-07T02:23:35.565Z,7.1
2018-10-07T02:29:04.794Z,7.1
2018-10-07T02:34:34.186Z,7.1
2018-10-07T02:40:03.125Z,7.1
2018-10-07T02:45:32.410Z,7.1
2018-10-07T02:51:05.988Z,7.1
2018-10-07T02:56:33.630Z,7.1
2018-10-07T03:01:57.096Z,7.1
2018-10-07T03:07:24.930Z,7
2018-10-07T03:12:54.124Z,7
2018-10-07T03:18:22.275Z,6.9
2018-10-07T03:23:50.392Z,6.9
2018-10-07T03:29:19.558Z,6.9
2018-10-07T03:34:53.749Z,7
2018-10-07T03:40:16.899Z,7
2018-10-07T03:45:45.058Z,7
2018-10-07T03:51:18.516Z,7
2018-10-07T03:56:41.404Z,6.9
2018-10-07T04:02:10.563Z,6.9
2018-10-07T04:07:39.728Z,6.9
2018-10-07T04:13:12.923Z,6.9
2018-10-07T04:18:37.296Z,6.9
2018-10-07T04:24:06.294Z,6.9
2018-10-07T04:29:39.435Z,6.9
2018-10-07T04:35:02.514Z,6.8
2018-10-07T04:40:30.673Z,6.7
2018-10-07T04:45:59.764Z,6.7
2018-10-07T04:51:27.887Z,6.6
2018-10-07T04:56:57.277Z,6.6
2018-10-07T05:02:26.134Z,6.5
2018-10-07T05:07:55.299Z,6.4
2018-10-07T05:13:29.401Z,6.4
2018-10-07T05:18:52.452Z,6.3
2018-10-07T05:24:21.834Z,6.3
2018-10-07T05:29:49.708Z,6.2
2018-10-07T05:35:18.771Z,6.2
2018-10-07T05:40:46.863Z,6.1
2018-10-07T05:46:20.255Z,6.2
2018-10-07T05:51:43.099Z,6.2
2018-10-07T05:57:11.411Z,6.2
2018-10-07T06:02:40.309Z,6.2
2018-10-07T06:08:13.411Z,6.3
2018-10-07T06:13:41.633Z,6.3
2018-10-07T06:19:10.629Z,6.4
2018-10-07T06:24:34.731Z,6.4
2018-10-07T06:30:09.128Z,6.4
2018-10-07T06:35:37.011Z,6.5
2018-10-07T06:41:00.261Z,6.4
2018-10-07T06:46:34.461Z,6.5
2018-10-07T06:52:03.293Z,6.5
2018-10-07T06:57:27.658Z,6.6
2018-10-07T07:03:00.576Z,6.7
2018-10-07T07:35:52.731Z,7.3
2018-10-07T07:41:16.627Z,7.5
2018-10-07T07:46:44.820Z,7.6
2018-10-07T07:52:18.059Z,7.7
2018-10-07T07:57:42.255Z,7.8
2018-10-07T08:03:10.727Z,7.9
2018-10-07T08:08:43.803Z,8
2018-10-07T08:14:07.989Z,8.1
2018-10-07T08:19:36.213Z,8.1
2018-10-07T08:25:04.821Z,8.2
2018-10-07T08:30:33.988Z,8.3
2018-10-07T08:36:08.295Z,8.4
2018-10-07T08:41:31.299Z,8.6
2018-10-07T08:47:00.041Z,8.7
2018-10-07T08:52:28.899Z,8.8
2018-10-07T08:57:58.486Z,8.9
2018-10-07T09:03:27.492Z,9
2018-10-07T09:09:01.270Z,9
2018-10-07T09:14:24.152Z,9.1
2018-10-07T10:58:29.570Z,10.5
2018-10-07T11:03:58.601Z,10.6
2018-10-07T11:09:27.591Z,10.7
2018-10-07T11:14:56.121Z,10.8
2018-10-07T11:20:29.661Z,11
2018-10-07T11:25:53.491Z,11.1
2018-10-07T11:31:22.811Z,11.1
2018-10-07T11:36:51.612Z,11.1
2018-10-07T11:42:19.894Z,11.2
2018-10-07T11:47:54.501Z,11.2
2018-10-07T11:53:23.043Z,11.3
2018-10-07T11:58:47.620Z,11.3
2018-10-07T12:04:21.179Z,11.4
2018-10-07T12:09:45.789Z,11.4
2018-10-07T12:15:20.403Z,11.5
2018-10-07T12:20:43.971Z,11.6
2018-10-07T12:26:13.551Z,11.6
2018-10-07T12:31:42.138Z,11.5
2018-10-07T12:37:11.978Z,11.5
2018-10-07T12:42:40.399Z,11.5
2018-10-07T12:48:09.926Z,11.4
2018-10-07T12:53:44.545Z,11.4
2018-10-07T12:59:08.126Z,11.5
2018-10-07T13:04:37.669Z,11.6
2018-10-07T13:10:06.267Z,11.7
2018-10-07T13:15:35.076Z,11.7
2018-10-07T13:21:03.425Z,11.7
2018-10-07T13:26:37.319Z,11.7
2018-10-07T13:32:00.912Z,11.7
2018-10-07T13:37:30.268Z,11.7
2018-10-07T13:43:04.831Z,11.7
2018-10-07T13:48:28.656Z,11.7
2018-10-07T13:53:58.042Z,11.7
2018-10-07T13:59:27.872Z,11.7
2018-10-07T14:05:02.490Z,11.7
2018-10-07T14:10:25.783Z,11.7
2018-10-07T14:15:55.698Z,11.6
2018-10-07T14:21:25.006Z,11.6
2018-10-07T14:26:54.881Z,11.6
2018-10-07T14:32:29.473Z,11.5
2018-10-07T14:37:53.884Z,11.5
2018-10-07T14:43:27.418Z,11.5
2018-10-07T14:48:50.993Z,11.4
2018-10-07T14:54:20.569Z,11.3
2018-10-07T14:59:55.743Z,11.2
2018-10-07T15:05:18.686Z,11.1
2018-10-07T15:10:48.512Z,11
2018-10-07T15:16:18.054Z,10.8
2018-10-07T15:21:51.369Z,10.7
2018-10-07T15:27:15.158Z,10.6
2018-10-07T15:32:44.400Z,10.6
2018-10-07T15:38:13.182Z,10.5
2018-10-07T15:43:42.414Z,10.4
2018-10-07T15:49:16.899Z,10.3
2018-10-07T15:54:41.366Z,10.2
2018-10-07T16:00:09.886Z,10.1
2018-10-07T16:05:43.649Z,10
2018-10-07T16:11:06.789Z,9.8
2018-10-07T16:16:41.250Z,9.7
2018-10-07T16:22:10.652Z,9.6
2018-10-07T16:27:35.066Z,9.5
2018-10-07T16:33:09.639Z,9.4
2018-10-07T16:38:33.912Z,9.3
2018-10-07T16:44:02.541Z,9.2
2018-10-07T16:49:30.704Z,9.2
2018-10-07T16:54:59.006Z,9.1
2018-10-07T17:00:27.654Z,9.1
2018-10-07T17:05:56.750Z,9
2018-10-07T17:11:30.049Z,9
2018-10-07T17:16:59.441Z,8.9
2018-10-07T17:22:27.965Z,8.8
2018-10-07T17:27:51.087Z,8.7
2018-10-07T17:33:24.359Z,8.6
2018-10-07T17:38:47.789Z,8.5
2018-10-07T17:44:17.162Z,8.5
2018-10-07T17:49:45.172Z,8.4
2018-10-07T17:55:14.460Z,8.3
2018-10-07T18:00:42.709Z,8.3
2018-10-07T18:06:11.985Z,8.2
2018-10-07T18:11:40.282Z,8.2
2018-10-07T18:17:09.820Z,8.1
2018-10-07T18:22:38.057Z,8.1
2018-10-07T18:28:12.088Z,8.1
2018-10-07T18:33:36.341Z,8.1
2018-10-07T18:39:04.589Z,8
2018-10-07T18:44:34.187Z,8
2018-10-07T18:50:02.081Z,7.9
2018-10-07T18:55:35.372Z,7.8
2018-10-07T19:00:59.556Z,7.7
2018-10-07T19:06:32.787Z,7.7
2018-10-07T19:11:56.226Z,7.6
2018-10-07T19:17:24.205Z,7.6
2018-10-07T19:22:53.421Z,7.5
2018-10-07T19:28:27.623Z,7.4
2018-10-07T19:33:51.834Z,7.4
2018-10-07T19:39:19.996Z,7.3
2018-10-07T19:44:53.254Z,7.3
2018-10-07T19:50:17.838Z,7.3
2018-10-07T19:55:45.558Z,7.2
2018-10-07T20:01:19.786Z,7.2
2018-10-07T20:06:43.932Z,7.2
2018-10-07T20:12:12.130Z,7.1
2018-10-07T20:17:40.562Z,7.1
2018-10-07T20:23:14.513Z,7.1
2018-10-07T20:28:39.317Z,7.1
2018-10-07T20:34:08.082Z,7.1
2018-10-07T20:39:35.989Z,7.1
2018-10-07T20:45:04.403Z,7.1
2018-10-07T20:50:32.360Z,7.2
2018-10-07T20:56:01.769Z,7.2
2018-10-07T21:01:30.682Z,7.2
2018-10-07T21:07:00.165Z,7.2
2018-10-07T21:12:34.095Z,7.2
2018-10-07T21:17:57.261Z,7.2
2018-10-07T21:23:31.720Z,7.2
2018-10-07T21:28:59.647Z,7.1
2018-10-07T21:34:24.040Z,7.1
2018-10-07T21:39:56.929Z,7
2018-10-07T21:45:26.382Z,7
2018-10-07T21:50:50.216Z,6.9
2018-10-07T21:56:19.639Z,6.9
2018-10-07T22:01:47.560Z,6.9
2018-10-07T22:07:15.719Z,6.9
2018-10-07T22:12:43.826Z,6.9
2018-10-07T22:18:12.963Z,6.9
2018-10-07T22:23:46.148Z,6.9
2018-10-07T22:29:14.252Z,6.8
2018-10-07T22:34:42.352Z,6.8
2018-10-07T22:40:05.498Z,6.8
2018-10-07T22:45:39.960Z,6.7
2018-10-07T22:51:08.037Z,6.7
2018-10-07T22:56:31.147Z,6.7
2018-10-07T23:02:04.378Z,6.7
2018-10-07T23:07:32.479Z,6.7
2018-10-07T23:12:55.286Z,6.7
2018-10-07T23:18:24.454Z,6.7
2018-10-07T23:23:53.548Z,6.7
2018-10-07T23:29:22.699Z,6.7
2018-10-07T23:34:51.926Z,6.7
2018-10-07T23:40:25.972Z,6.7
2018-10-07T23:45:54.094Z,6.8
2018-10-07T23:51:23.328Z,6.8
2018-10-07T23:56:46.606Z,6.9
